sensor_id;sensor_type;location;lat;lon;timestamp;P1;durP1;ratioP1;P2;durP2;ratioP2
8622;SDS011;4349;47.552;8.904;2023-08-20T00:02:16;7.30;;;6.60;;
8622;SDS011;4349;47.552;8.904;2023-08-20T00:04:45;8.23;;;7.40;;
8622;SDS011;4349;47.552;8.904;2023-08-20T00:07:13;15.30;;;10.60;;
8622;SDS011;4349;47.552;8.904;2023-08-20T00:09:44;19.13;;;17.17;;
8622;SDS011;4349;47.552;8.904;2023-08-20T00:12:11;16.88;;;14.98;;
8622;SDS011;4349;47.552;8.904;2023-08-20T00:14:51;17.63;;;15.80;;
8622;SDS011;4349;47.552;8.904;2023-08-20T00:17:20;17.63;;;14.50;;
8622;SDS011;4349;47.552;8.904;2023-08-20T00:19:50;13.85;;;12.02;;
8622;SDS011;4349;47.552;8.904;2023-08-20T00:22:19;12.38;;;11.25;;
8622;SDS011;4349;47.552;8.904;2023-08-20T00:24:48;12.18;;;11.15;;
8622;SDS011;4349;47.552;8.904;2023-08-20T00:27:16;12.57;;;9.80;;
8622;SDS011;4349;47.552;8.904;2023-08-20T00:29:43;10.43;;;9.52;;
8622;SDS011;4349;47.552;8.904;2023-08-20T00:32:11;9.90;;;9.10;;
8622;SDS011;4349;47.552;8.904;2023-08-20T00:34:40;9.57;;;8.88;;
8622;SDS011;4349;47.552;8.904;2023-08-20T00:37:08;9.60;;;8.90;;
8622;SDS011;4349;47.552;8.904;2023-08-20T00:39:36;12.23;;;8.43;;
8622;SDS011;4349;47.552;8.904;2023-08-20T00:42:03;8.95;;;8.15;;
8622;SDS011;4349;47.552;8.904;2023-08-20T00:44:31;10.23;;;8.40;;
8622;SDS011;4349;47.552;8.904;2023-08-20T00:46:59;9.32;;;8.52;;
8622;SDS011;4349;47.552;8.904;2023-08-20T00:49:27;9.45;;;8.60;;
8622;SDS011;4349;47.552;8.904;2023-08-20T00:51:56;10.43;;;9.38;;
8622;SDS011;4349;47.552;8.904;2023-08-20T00:54:23;9.18;;;8.32;;
8622;SDS011;4349;47.552;8.904;2023-08-20T00:56:51;9.95;;;7.88;;
8622;SDS011;4349;47.552;8.904;2023-08-20T00:59:19;8.77;;;8.05;;
8622;SDS011;4349;47.552;8.904;2023-08-20T01:01:47;9.05;;;7.53;;
8622;SDS011;4349;47.552;8.904;2023-08-20T01:04:15;12.68;;;8.73;;
8622;SDS011;4349;47.552;8.904;2023-08-20T01:06:44;7.40;;;6.95;;
8622;SDS011;4349;47.552;8.904;2023-08-20T01:09:17;7.60;;;7.03;;
8622;SDS011;4349;47.552;8.904;2023-08-20T01:11:49;7.78;;;7.18;;
8622;SDS011;4349;47.552;8.904;2023-08-20T01:14:20;7.88;;;7.10;;
8622;SDS011;4349;47.552;8.904;2023-08-20T01:16:47;8.45;;;6.63;;
8622;SDS011;4349;47.552;8.904;2023-08-20T01:19:16;7.30;;;6.68;;
8622;SDS011;4349;47.552;8.904;2023-08-20T01:21:47;7.70;;;6.97;;
8622;SDS011;4349;47.552;8.904;2023-08-20T01:24:20;7.78;;;7.00;;
8622;SDS011;4349;47.552;8.904;2023-08-20T01:27:00;7.50;;;6.90;;
8622;SDS011;4349;47.552;8.904;2023-08-20T01:29:35;9.57;;;7.70;;
8622;SDS011;4349;47.552;8.904;2023-08-20T01:32:03;7.65;;;6.95;;
8622;SDS011;4349;47.552;8.904;2023-08-20T01:34:31;8.57;;;7.88;;
8622;SDS011;4349;47.552;8.904;2023-08-20T01:36:59;7.30;;;6.82;;
8622;SDS011;4349;47.552;8.904;2023-08-20T01:39:27;8.05;;;7.45;;
8622;SDS011;4349;47.552;8.904;2023-08-20T01:41:54;8.50;;;7.70;;
8622;SDS011;4349;47.552;8.904;2023-08-20T01:44:25;8.25;;;7.45;;
8622;SDS011;4349;47.552;8.904;2023-08-20T01:46:54;8.35;;;7.18;;
8622;SDS011;4349;47.552;8.904;2023-08-20T01:49:21;8.40;;;7.38;;
8622;SDS011;4349;47.552;8.904;2023-08-20T01:51:49;8.18;;;7.38;;
8622;SDS011;4349;47.552;8.904;2023-08-20T01:54:16;11.38;;;7.38;;
8622;SDS011;4349;47.552;8.904;2023-08-20T01:56:44;9.38;;;7.43;;
8622;SDS011;4349;47.552;8.904;2023-08-20T01:59:12;8.30;;;7.28;;
8622;SDS011;4349;47.552;8.904;2023-08-20T02:01:40;8.00;;;7.20;;
8622;SDS011;4349;47.552;8.904;2023-08-20T02:04:09;7.75;;;7.07;;
8622;SDS011;4349;47.552;8.904;2023-08-20T02:06:37;7.78;;;7.03;;
8622;SDS011;4349;47.552;8.904;2023-08-20T02:09:05;7.88;;;6.82;;
8622;SDS011;4349;47.552;8.904;2023-08-20T02:11:32;8.63;;;7.75;;
8622;SDS011;4349;47.552;8.904;2023-08-20T02:14:02;8.00;;;7.25;;
8622;SDS011;4349;47.552;8.904;2023-08-20T02:16:29;8.57;;;7.78;;
8622;SDS011;4349;47.552;8.904;2023-08-20T02:18:58;8.50;;;7.18;;
8622;SDS011;4349;47.552;8.904;2023-08-20T02:21:30;9.63;;;7.57;;
8622;SDS011;4349;47.552;8.904;2023-08-20T02:23:57;7.68;;;6.85;;
8622;SDS011;4349;47.552;8.904;2023-08-20T02:26:26;9.00;;;8.07;;
8622;SDS011;4349;47.552;8.904;2023-08-20T02:28:54;8.60;;;7.80;;
8622;SDS011;4349;47.552;8.904;2023-08-20T02:31:21;8.35;;;7.65;;
8622;SDS011;4349;47.552;8.904;2023-08-20T02:33:49;10.13;;;8.35;;
8622;SDS011;4349;47.552;8.904;2023-08-20T02:36:16;7.70;;;7.20;;
8622;SDS011;4349;47.552;8.904;2023-08-20T02:38:45;8.23;;;7.50;;
8622;SDS011;4349;47.552;8.904;2023-08-20T02:41:14;8.27;;;7.53;;
8622;SDS011;4349;47.552;8.904;2023-08-20T02:43:41;8.10;;;7.15;;
8622;SDS011;4349;47.552;8.904;2023-08-20T02:46:09;7.80;;;7.10;;
8622;SDS011;4349;47.552;8.904;2023-08-20T02:48:36;8.15;;;7.35;;
8622;SDS011;4349;47.552;8.904;2023-08-20T02:51:04;7.90;;;7.22;;
8622;SDS011;4349;47.552;8.904;2023-08-20T02:53:31;7.93;;;7.28;;
8622;SDS011;4349;47.552;8.904;2023-08-20T02:56:00;8.88;;;6.75;;
8622;SDS011;4349;47.552;8.904;2023-08-20T02:58:29;7.40;;;6.80;;
8622;SDS011;4349;47.552;8.904;2023-08-20T03:00:57;7.70;;;6.93;;
8622;SDS011;4349;47.552;8.904;2023-08-20T03:03:25;7.47;;;6.90;;
8622;SDS011;4349;47.552;8.904;2023-08-20T03:05:52;7.72;;;7.22;;
8622;SDS011;4349;47.552;8.904;2023-08-20T03:08:20;7.63;;;7.03;;
8622;SDS011;4349;47.552;8.904;2023-08-20T03:10:48;8.25;;;7.60;;
8622;SDS011;4349;47.552;8.904;2023-08-20T03:13:16;8.98;;;8.13;;
8622;SDS011;4349;47.552;8.904;2023-08-20T03:15:45;8.95;;;8.15;;
8622;SDS011;4349;47.552;8.904;2023-08-20T03:18:13;9.00;;;8.20;;
8622;SDS011;4349;47.552;8.904;2023-08-20T03:20:40;9.32;;;8.43;;
8622;SDS011;4349;47.552;8.904;2023-08-20T03:23:08;8.97;;;8.30;;
8622;SDS011;4349;47.552;8.904;2023-08-20T03:25:35;8.15;;;7.55;;
8622;SDS011;4349;47.552;8.904;2023-08-20T03:28:03;8.80;;;7.97;;
8622;SDS011;4349;47.552;8.904;2023-08-20T03:30:32;8.95;;;8.15;;
8622;SDS011;4349;47.552;8.904;2023-08-20T03:33:01;8.30;;;7.68;;
8622;SDS011;4349;47.552;8.904;2023-08-20T03:35:30;7.70;;;7.15;;
8622;SDS011;4349;47.552;8.904;2023-08-20T03:37:57;8.40;;;7.70;;
8622;SDS011;4349;47.552;8.904;2023-08-20T03:40:25;7.82;;;7.32;;
8622;SDS011;4349;47.552;8.904;2023-08-20T03:42:52;8.07;;;7.43;;
8622;SDS011;4349;47.552;8.904;2023-08-20T03:45:20;8.63;;;7.82;;
8622;SDS011;4349;47.552;8.904;2023-08-20T03:47:49;8.10;;;7.40;;
8622;SDS011;4349;47.552;8.904;2023-08-20T03:50:16;9.73;;;8.85;;
8622;SDS011;4349;47.552;8.904;2023-08-20T03:52:44;10.20;;;9.32;;
8622;SDS011;4349;47.552;8.904;2023-08-20T03:55:12;9.05;;;8.25;;
8622;SDS011;4349;47.552;8.904;2023-08-20T03:57:39;8.82;;;8.02;;
8622;SDS011;4349;47.552;8.904;2023-08-20T04:00:07;9.57;;;8.60;;
8622;SDS011;4349;47.552;8.904;2023-08-20T04:02:44;10.30;;;9.00;;
8622;SDS011;4349;47.552;8.904;2023-08-20T04:05:13;11.98;;;8.52;;
8622;SDS011;4349;47.552;8.904;2023-08-20T04:07:40;8.80;;;8.10;;
8622;SDS011;4349;47.552;8.904;2023-08-20T04:10:08;9.20;;;7.90;;
8622;SDS011;4349;47.552;8.904;2023-08-20T04:12:36;8.45;;;7.85;;
8622;SDS011;4349;47.552;8.904;2023-08-20T04:15:04;9.57;;;8.70;;
8622;SDS011;4349;47.552;8.904;2023-08-20T04:17:31;10.35;;;8.10;;
8622;SDS011;4349;47.552;8.904;2023-08-20T04:20:00;9.25;;;8.35;;
8622;SDS011;4349;47.552;8.904;2023-08-20T04:22:29;8.90;;;8.15;;
8622;SDS011;4349;47.552;8.904;2023-08-20T04:24:57;9.57;;;8.57;;
8622;SDS011;4349;47.552;8.904;2023-08-20T04:27:26;8.90;;;8.18;;
8622;SDS011;4349;47.552;8.904;2023-08-20T04:29:54;8.82;;;7.50;;
8622;SDS011;4349;47.552;8.904;2023-08-20T04:32:22;9.83;;;8.83;;
8622;SDS011;4349;47.552;8.904;2023-08-20T04:34:49;8.57;;;7.97;;
8622;SDS011;4349;47.552;8.904;2023-08-20T04:37:19;10.10;;;8.05;;
8622;SDS011;4349;47.552;8.904;2023-08-20T04:39:48;11.50;;;8.50;;
8622;SDS011;4349;47.552;8.904;2023-08-20T04:42:16;9.20;;;8.50;;
8622;SDS011;4349;47.552;8.904;2023-08-20T04:44:44;8.70;;;7.80;;
8622;SDS011;4349;47.552;8.904;2023-08-20T04:47:11;9.10;;;8.20;;
8622;SDS011;4349;47.552;8.904;2023-08-20T04:49:39;9.43;;;8.63;;
8622;SDS011;4349;47.552;8.904;2023-08-20T04:52:07;9.63;;;8.33;;
8622;SDS011;4349;47.552;8.904;2023-08-20T04:54:34;8.87;;;8.10;;
8622;SDS011;4349;47.552;8.904;2023-08-20T04:57:03;9.88;;;8.93;;
8622;SDS011;4349;47.552;8.904;2023-08-20T04:59:31;10.57;;;9.02;;
8622;SDS011;4349;47.552;8.904;2023-08-20T05:02:25;10.10;;;9.15;;
8622;SDS011;4349;47.552;8.904;2023-08-20T05:04:59;10.87;;;8.00;;
8622;SDS011;4349;47.552;8.904;2023-08-20T05:07:27;9.30;;;8.50;;
8622;SDS011;4349;47.552;8.904;2023-08-20T05:09:55;9.10;;;8.30;;
8622;SDS011;4349;47.552;8.904;2023-08-20T05:12:24;9.43;;;8.53;;
8622;SDS011;4349;47.552;8.904;2023-08-20T05:14:51;10.37;;;9.37;;
8622;SDS011;4349;47.552;8.904;2023-08-20T05:17:19;10.03;;;9.20;;
8622;SDS011;4349;47.552;8.904;2023-08-20T05:19:47;9.47;;;8.60;;
8622;SDS011;4349;47.552;8.904;2023-08-20T05:22:14;10.23;;;8.10;;
8622;SDS011;4349;47.552;8.904;2023-08-20T05:24:42;9.60;;;8.90;;
8622;SDS011;4349;47.552;8.904;2023-08-20T05:27:13;9.83;;;8.87;;
8622;SDS011;4349;47.552;8.904;2023-08-20T05:29:45;9.30;;;8.40;;
8622;SDS011;4349;47.552;8.904;2023-08-20T05:32:14;10.20;;;9.30;;
8622;SDS011;4349;47.552;8.904;2023-08-20T05:34:43;9.47;;;8.67;;
8622;SDS011;4349;47.552;8.904;2023-08-20T05:37:10;10.37;;;8.80;;
8622;SDS011;4349;47.552;8.904;2023-08-20T05:39:40;11.90;;;10.80;;
8622;SDS011;4349;47.552;8.904;2023-08-20T05:42:08;16.97;;;15.30;;
8622;SDS011;4349;47.552;8.904;2023-08-20T05:44:36;14.50;;;13.18;;
8622;SDS011;4349;47.552;8.904;2023-08-20T05:47:09;14.13;;;12.67;;
8622;SDS011;4349;47.552;8.904;2023-08-20T05:49:37;11.63;;;10.10;;
8622;SDS011;4349;47.552;8.904;2023-08-20T05:52:05;10.17;;;9.37;;
8622;SDS011;4349;47.552;8.904;2023-08-20T05:54:33;9.88;;;9.07;;
8622;SDS011;4349;47.552;8.904;2023-08-20T05:57:01;8.73;;;8.02;;
8622;SDS011;4349;47.552;8.904;2023-08-20T05:59:29;10.15;;;9.25;;
8622;SDS011;4349;47.552;8.904;2023-08-20T06:01:56;8.77;;;8.18;;
8622;SDS011;4349;47.552;8.904;2023-08-20T06:04:25;10.88;;;8.30;;
8622;SDS011;4349;47.552;8.904;2023-08-20T06:06:53;9.90;;;8.95;;
8622;SDS011;4349;47.552;8.904;2023-08-20T06:09:20;9.85;;;8.68;;
8622;SDS011;4349;47.552;8.904;2023-08-20T06:11:48;9.35;;;8.30;;
8622;SDS011;4349;47.552;8.904;2023-08-20T06:14:15;9.13;;;8.23;;
8622;SDS011;4349;47.552;8.904;2023-08-20T06:16:43;8.45;;;7.65;;
8622;SDS011;4349;47.552;8.904;2023-08-20T06:19:10;13.38;;;9.13;;
8622;SDS011;4349;47.552;8.904;2023-08-20T06:21:39;9.45;;;8.55;;
8622;SDS011;4349;47.552;8.904;2023-08-20T06:24:06;9.13;;;8.23;;
8622;SDS011;4349;47.552;8.904;2023-08-20T06:26:35;9.52;;;8.75;;
8622;SDS011;4349;47.552;8.904;2023-08-20T06:29:02;9.02;;;8.32;;
8622;SDS011;4349;47.552;8.904;2023-08-20T06:31:30;9.55;;;8.65;;
8622;SDS011;4349;47.552;8.904;2023-08-20T06:33:57;10.38;;;8.82;;
8622;SDS011;4349;47.552;8.904;2023-08-20T06:36:26;8.98;;;7.85;;
8622;SDS011;4349;47.552;8.904;2023-08-20T06:38:55;9.15;;;8.27;;
8622;SDS011;4349;47.552;8.904;2023-08-20T06:41:23;9.10;;;8.30;;
8622;SDS011;4349;47.552;8.904;2023-08-20T06:43:50;9.93;;;8.02;;
8622;SDS011;4349;47.552;8.904;2023-08-20T06:46:18;10.63;;;8.02;;
8622;SDS011;4349;47.552;8.904;2023-08-20T06:48:45;9.75;;;8.75;;
8622;SDS011;4349;47.552;8.904;2023-08-20T06:51:13;8.52;;;7.78;;
8622;SDS011;4349;47.552;8.904;2023-08-20T06:53:41;9.60;;;8.10;;
8622;SDS011;4349;47.552;8.904;2023-08-20T06:56:10;8.70;;;8.00;;
8622;SDS011;4349;47.552;8.904;2023-08-20T06:58:38;9.20;;;8.40;;
8622;SDS011;4349;47.552;8.904;2023-08-20T07:01:09;9.00;;;8.23;;
8622;SDS011;4349;47.552;8.904;2023-08-20T07:03:39;9.48;;;8.57;;
8622;SDS011;4349;47.552;8.904;2023-08-20T07:06:07;9.13;;;8.20;;
8622;SDS011;4349;47.552;8.904;2023-08-20T07:08:35;8.40;;;7.70;;
8622;SDS011;4349;47.552;8.904;2023-08-20T07:11:02;8.25;;;7.45;;
8622;SDS011;4349;47.552;8.904;2023-08-20T07:13:31;8.65;;;7.70;;
8622;SDS011;4349;47.552;8.904;2023-08-20T07:15:59;8.02;;;7.25;;
8622;SDS011;4349;47.552;8.904;2023-08-20T07:18:27;8.18;;;7.35;;
8622;SDS011;4349;47.552;8.904;2023-08-20T07:20:55;8.55;;;7.68;;
8622;SDS011;4349;47.552;8.904;2023-08-20T07:23:23;8.02;;;7.30;;
8622;SDS011;4349;47.552;8.904;2023-08-20T07:25:50;7.90;;;7.22;;
8622;SDS011;4349;47.552;8.904;2023-08-20T07:28:18;8.35;;;7.55;;
8622;SDS011;4349;47.552;8.904;2023-08-20T07:31:08;9.88;;;7.95;;
8622;SDS011;4349;47.552;8.904;2023-08-20T07:33:35;8.98;;;8.18;;
8622;SDS011;4349;47.552;8.904;2023-08-20T07:36:03;8.95;;;8.25;;
8622;SDS011;4349;47.552;8.904;2023-08-20T07:38:31;9.88;;;7.88;;
8622;SDS011;4349;47.552;8.904;2023-08-20T07:40:58;9.38;;;8.48;;
8622;SDS011;4349;47.552;8.904;2023-08-20T07:43:26;22.67;;;10.65;;
8622;SDS011;4349;47.552;8.904;2023-08-20T07:45:54;9.95;;;9.05;;
8622;SDS011;4349;47.552;8.904;2023-08-20T07:48:22;10.45;;;9.55;;
8622;SDS011;4349;47.552;8.904;2023-08-20T07:50:50;9.57;;;8.85;;
8622;SDS011;4349;47.552;8.904;2023-08-20T07:53:17;10.13;;;9.13;;
8622;SDS011;4349;47.552;8.904;2023-08-20T07:55:45;10.40;;;9.50;;
8622;SDS011;4349;47.552;8.904;2023-08-20T07:58:12;9.57;;;8.65;;
8622;SDS011;4349;47.552;8.904;2023-08-20T08:00:40;11.30;;;10.32;;
8622;SDS011;4349;47.552;8.904;2023-08-20T08:03:07;10.95;;;9.27;;
8622;SDS011;4349;47.552;8.904;2023-08-20T08:05:37;11.52;;;8.90;;
8622;SDS011;4349;47.552;8.904;2023-08-20T08:08:05;10.25;;;9.40;;
8622;SDS011;4349;47.552;8.904;2023-08-20T08:10:32;9.80;;;8.73;;
8622;SDS011;4349;47.552;8.904;2023-08-20T08:13:00;10.25;;;9.45;;
8622;SDS011;4349;47.552;8.904;2023-08-20T08:15:28;10.10;;;9.30;;
8622;SDS011;4349;47.552;8.904;2023-08-20T08:17:58;10.73;;;9.80;;
8622;SDS011;4349;47.552;8.904;2023-08-20T08:20:26;10.70;;;9.80;;
8622;SDS011;4349;47.552;8.904;2023-08-20T08:22:55;11.68;;;10.65;;
8622;SDS011;4349;47.552;8.904;2023-08-20T08:25:23;10.35;;;9.13;;
8622;SDS011;4349;47.552;8.904;2023-08-20T08:27:50;10.57;;;9.55;;
8622;SDS011;4349;47.552;8.904;2023-08-20T08:30:26;10.30;;;9.40;;
8622;SDS011;4349;47.552;8.904;2023-08-20T08:32:54;10.88;;;9.10;;
8622;SDS011;4349;47.552;8.904;2023-08-20T08:35:21;8.38;;;7.68;;
8622;SDS011;4349;47.552;8.904;2023-08-20T08:37:49;9.48;;;8.68;;
8622;SDS011;4349;47.552;8.904;2023-08-20T08:40:18;9.80;;;9.00;;
8622;SDS011;4349;47.552;8.904;2023-08-20T08:42:46;9.10;;;8.30;;
8622;SDS011;4349;47.552;8.904;2023-08-20T08:45:15;9.07;;;8.38;;
8622;SDS011;4349;47.552;8.904;2023-08-20T08:47:43;9.35;;;8.30;;
8622;SDS011;4349;47.552;8.904;2023-08-20T08:50:11;8.35;;;7.65;;
8622;SDS011;4349;47.552;8.904;2023-08-20T08:52:39;9.18;;;8.35;;
8622;SDS011;4349;47.552;8.904;2023-08-20T08:55:07;8.25;;;7.30;;
8622;SDS011;4349;47.552;8.904;2023-08-20T08:57:36;7.82;;;7.20;;
8622;SDS011;4349;47.552;8.904;2023-08-20T09:00:04;7.30;;;6.80;;
8622;SDS011;4349;47.552;8.904;2023-08-20T09:02:32;7.60;;;6.93;;
8622;SDS011;4349;47.552;8.904;2023-08-20T09:05:00;8.48;;;7.40;;
8622;SDS011;4349;47.552;8.904;2023-08-20T09:07:27;7.40;;;6.65;;
8622;SDS011;4349;47.552;8.904;2023-08-20T09:09:58;8.25;;;7.57;;
8622;SDS011;4349;47.552;8.904;2023-08-20T09:12:27;7.97;;;7.38;;
8622;SDS011;4349;47.552;8.904;2023-08-20T09:14:57;7.90;;;7.28;;
8622;SDS011;4349;47.552;8.904;2023-08-20T09:17:28;8.40;;;7.25;;
8622;SDS011;4349;47.552;8.904;2023-08-20T09:19:55;6.70;;;6.10;;
8622;SDS011;4349;47.552;8.904;2023-08-20T09:22:24;7.90;;;7.22;;
8622;SDS011;4349;47.552;8.904;2023-08-20T09:24:52;8.52;;;7.45;;
8622;SDS011;4349;47.552;8.904;2023-08-20T09:27:20;8.77;;;7.32;;
8622;SDS011;4349;47.552;8.904;2023-08-20T09:29:48;7.10;;;6.60;;
8622;SDS011;4349;47.552;8.904;2023-08-20T09:32:18;8.00;;;7.30;;
8622;SDS011;4349;47.552;8.904;2023-08-20T09:34:47;7.90;;;7.30;;
8622;SDS011;4349;47.552;8.904;2023-08-20T09:37:15;7.22;;;6.63;;
8622;SDS011;4349;47.552;8.904;2023-08-20T09:39:43;8.00;;;7.32;;
8622;SDS011;4349;47.552;8.904;2023-08-20T09:42:11;7.07;;;6.55;;
8622;SDS011;4349;47.552;8.904;2023-08-20T09:44:40;6.20;;;5.90;;
8622;SDS011;4349;47.552;8.904;2023-08-20T09:47:08;7.88;;;7.07;;
8622;SDS011;4349;47.552;8.904;2023-08-20T09:49:38;7.47;;;6.82;;
8622;SDS011;4349;47.552;8.904;2023-08-20T09:52:06;7.65;;;7.05;;
8622;SDS011;4349;47.552;8.904;2023-08-20T09:54:36;9.27;;;6.65;;
8622;SDS011;4349;47.552;8.904;2023-08-20T09:57:09;7.13;;;6.50;;
8622;SDS011;4349;47.552;8.904;2023-08-20T09:59:39;7.28;;;6.78;;
8622;SDS011;4349;47.552;8.904;2023-08-20T10:02:08;7.22;;;6.65;;
8622;SDS011;4349;47.552;8.904;2023-08-20T10:04:41;7.85;;;6.18;;
8622;SDS011;4349;47.552;8.904;2023-08-20T10:07:10;7.00;;;6.40;;
8622;SDS011;4349;47.552;8.904;2023-08-20T10:09:38;6.40;;;5.90;;
8622;SDS011;4349;47.552;8.904;2023-08-20T10:12:09;7.03;;;6.43;;
8622;SDS011;4349;47.552;8.904;2023-08-20T10:14:36;8.82;;;6.97;;
8622;SDS011;4349;47.552;8.904;2023-08-20T10:17:05;7.95;;;6.60;;
8622;SDS011;4349;47.552;8.904;2023-08-20T10:19:33;9.32;;;7.28;;
8622;SDS011;4349;47.552;8.904;2023-08-20T10:22:03;7.80;;;6.60;;
8622;SDS011;4349;47.552;8.904;2023-08-20T10:24:39;7.20;;;6.60;;
8622;SDS011;4349;47.552;8.904;2023-08-20T10:27:07;7.35;;;6.10;;
8622;SDS011;4349;47.552;8.904;2023-08-20T10:29:39;7.53;;;6.80;;
8622;SDS011;4349;47.552;8.904;2023-08-20T10:32:08;7.10;;;6.45;;
8622;SDS011;4349;47.552;8.904;2023-08-20T10:34:36;8.15;;;6.80;;
8622;SDS011;4349;47.552;8.904;2023-08-20T10:37:12;6.45;;;6.05;;
8622;SDS011;4349;47.552;8.904;2023-08-20T10:39:40;7.20;;;6.60;;
8622;SDS011;4349;47.552;8.904;2023-08-20T10:42:09;6.82;;;6.18;;
8622;SDS011;4349;47.552;8.904;2023-08-20T10:47:23;7.38;;;6.68;;
8622;SDS011;4349;47.552;8.904;2023-08-20T10:49:52;8.60;;;6.68;;
8622;SDS011;4349;47.552;8.904;2023-08-20T10:52:21;8.20;;;7.53;;
8622;SDS011;4349;47.552;8.904;2023-08-20T10:54:49;7.38;;;6.85;;
8622;SDS011;4349;47.552;8.904;2023-08-20T10:57:17;7.50;;;6.85;;
8622;SDS011;4349;47.552;8.904;2023-08-20T10:59:55;6.90;;;6.40;;
8622;SDS011;4349;47.552;8.904;2023-08-20T11:02:23;7.00;;;6.40;;
8622;SDS011;4349;47.552;8.904;2023-08-20T11:04:51;6.63;;;6.13;;
8622;SDS011;4349;47.552;8.904;2023-08-20T11:07:21;6.03;;;5.60;;
8622;SDS011;4349;47.552;8.904;2023-08-20T11:09:49;6.10;;;5.70;;
8622;SDS011;4349;47.552;8.904;2023-08-20T11:12:19;6.60;;;6.05;;
8622;SDS011;4349;47.552;8.904;2023-08-20T11:14:47;7.43;;;6.00;;
8622;SDS011;4349;47.552;8.904;2023-08-20T11:17:14;6.38;;;5.80;;
8622;SDS011;4349;47.552;8.904;2023-08-20T11:19:42;6.25;;;5.85;;
8622;SDS011;4349;47.552;8.904;2023-08-20T11:22:17;6.43;;;5.93;;
8622;SDS011;4349;47.552;8.904;2023-08-20T11:24:46;7.60;;;6.20;;
8622;SDS011;4349;47.552;8.904;2023-08-20T11:27:14;6.28;;;5.63;;
8622;SDS011;4349;47.552;8.904;2023-08-20T11:29:42;6.10;;;5.60;;
8622;SDS011;4349;47.552;8.904;2023-08-20T11:32:09;7.90;;;5.78;;
8622;SDS011;4349;47.552;8.904;2023-08-20T11:34:37;6.00;;;5.53;;
8622;SDS011;4349;47.552;8.904;2023-08-20T11:37:05;5.63;;;5.22;;
8622;SDS011;4349;47.552;8.904;2023-08-20T11:39:33;5.88;;;5.38;;
8622;SDS011;4349;47.552;8.904;2023-08-20T11:42:02;7.20;;;5.70;;
8622;SDS011;4349;47.552;8.904;2023-08-20T11:44:41;6.10;;;5.63;;
8622;SDS011;4349;47.552;8.904;2023-08-20T11:47:13;7.05;;;5.60;;
8622;SDS011;4349;47.552;8.904;2023-08-20T11:49:40;6.43;;;5.82;;
8622;SDS011;4349;47.552;8.904;2023-08-20T11:52:07;9.23;;;6.05;;
8622;SDS011;4349;47.552;8.904;2023-08-20T11:54:35;5.40;;;5.00;;
8622;SDS011;4349;47.552;8.904;2023-08-20T11:57:05;5.38;;;4.95;;
8622;SDS011;4349;47.552;8.904;2023-08-20T11:59:32;5.28;;;4.88;;
8622;SDS011;4349;47.552;8.904;2023-08-20T12:02:01;5.13;;;4.72;;
8622;SDS011;4349;47.552;8.904;2023-08-20T12:04:29;8.18;;;5.55;;
8622;SDS011;4349;47.552;8.904;2023-08-20T12:07:03;5.25;;;4.72;;
8622;SDS011;4349;47.552;8.904;2023-08-20T12:09:32;6.05;;;5.00;;
8622;SDS011;4349;47.552;8.904;2023-08-20T12:12:01;5.22;;;4.80;;
8622;SDS011;4349;47.552;8.904;2023-08-20T12:14:30;7.57;;;5.35;;
8622;SDS011;4349;47.552;8.904;2023-08-20T12:16:57;5.57;;;5.07;;
8622;SDS011;4349;47.552;8.904;2023-08-20T12:19:29;5.38;;;4.88;;
8622;SDS011;4349;47.552;8.904;2023-08-20T12:21:56;5.40;;;4.78;;
8622;SDS011;4349;47.552;8.904;2023-08-20T12:24:24;7.82;;;5.20;;
8622;SDS011;4349;47.552;8.904;2023-08-20T12:26:52;5.57;;;5.07;;
8622;SDS011;4349;47.552;8.904;2023-08-20T12:29:19;5.32;;;4.93;;
8622;SDS011;4349;47.552;8.904;2023-08-20T12:31:48;5.20;;;4.80;;
8622;SDS011;4349;47.552;8.904;2023-08-20T12:34:16;5.20;;;4.88;;
8622;SDS011;4349;47.552;8.904;2023-08-20T12:36:43;5.63;;;5.28;;
8622;SDS011;4349;47.552;8.904;2023-08-20T12:39:11;5.55;;;5.13;;
8622;SDS011;4349;47.552;8.904;2023-08-20T12:41:39;8.43;;;5.13;;
8622;SDS011;4349;47.552;8.904;2023-08-20T12:44:07;6.10;;;5.25;;
8622;SDS011;4349;47.552;8.904;2023-08-20T12:46:35;7.25;;;5.28;;
8622;SDS011;4349;47.552;8.904;2023-08-20T12:49:04;4.97;;;4.57;;
8622;SDS011;4349;47.552;8.904;2023-08-20T12:51:31;6.03;;;5.45;;
8622;SDS011;4349;47.552;8.904;2023-08-20T12:53:59;5.60;;;4.85;;
8622;SDS011;4349;47.552;8.904;2023-08-20T12:56:27;5.78;;;4.88;;
8622;SDS011;4349;47.552;8.904;2023-08-20T12:58:55;7.03;;;5.50;;
8622;SDS011;4349;47.552;8.904;2023-08-20T13:01:22;6.43;;;5.85;;
8622;SDS011;4349;47.552;8.904;2023-08-20T13:03:50;6.15;;;5.60;;
8622;SDS011;4349;47.552;8.904;2023-08-20T13:06:20;6.18;;;5.57;;
8622;SDS011;4349;47.552;8.904;2023-08-20T13:08:47;6.60;;;5.65;;
8622;SDS011;4349;47.552;8.904;2023-08-20T13:11:16;5.80;;;5.25;;
8622;SDS011;4349;47.552;8.904;2023-08-20T13:13:44;8.30;;;5.45;;
8622;SDS011;4349;47.552;8.904;2023-08-20T13:16:12;5.78;;;5.38;;
8622;SDS011;4349;47.552;8.904;2023-08-20T13:18:40;7.50;;;6.47;;
8622;SDS011;4349;47.552;8.904;2023-08-20T13:21:07;6.28;;;5.75;;
8622;SDS011;4349;47.552;8.904;2023-08-20T13:23:36;6.47;;;6.03;;
8622;SDS011;4349;47.552;8.904;2023-08-20T13:26:04;6.85;;;5.97;;
8622;SDS011;4349;47.552;8.904;2023-08-20T13:28:33;6.47;;;5.72;;
8622;SDS011;4349;47.552;8.904;2023-08-20T13:31:01;6.35;;;5.75;;
8622;SDS011;4349;47.552;8.904;2023-08-20T13:33:30;6.20;;;5.80;;
8622;SDS011;4349;47.552;8.904;2023-08-20T13:35:58;5.75;;;5.03;;
8622;SDS011;4349;47.552;8.904;2023-08-20T13:38:25;6.07;;;5.47;;
8622;SDS011;4349;47.552;8.904;2023-08-20T13:40:54;5.45;;;5.05;;
8622;SDS011;4349;47.552;8.904;2023-08-20T13:43:23;5.90;;;5.32;;
8622;SDS011;4349;47.552;8.904;2023-08-20T13:45:50;5.63;;;5.13;;
8622;SDS011;4349;47.552;8.904;2023-08-20T13:48:18;5.60;;;5.20;;
8622;SDS011;4349;47.552;8.904;2023-08-20T13:50:46;5.55;;;5.18;;
8622;SDS011;4349;47.552;8.904;2023-08-20T13:53:13;7.18;;;5.57;;
8622;SDS011;4349;47.552;8.904;2023-08-20T13:55:41;5.03;;;4.72;;
8622;SDS011;4349;47.552;8.904;2023-08-20T13:58:10;6.03;;;5.45;;
8622;SDS011;4349;47.552;8.904;2023-08-20T14:00:37;5.40;;;5.00;;
8622;SDS011;4349;47.552;8.904;2023-08-20T14:03:05;5.70;;;4.95;;
8622;SDS011;4349;47.552;8.904;2023-08-20T14:05:32;4.97;;;4.57;;
8622;SDS011;4349;47.552;8.904;2023-08-20T14:08:00;4.53;;;4.22;;
8622;SDS011;4349;47.552;8.904;2023-08-20T14:10:28;4.32;;;3.97;;
8622;SDS011;4349;47.552;8.904;2023-08-20T14:12:55;4.38;;;4.07;;
8622;SDS011;4349;47.552;8.904;2023-08-20T14:15:24;6.00;;;4.10;;
8622;SDS011;4349;47.552;8.904;2023-08-20T14:17:52;4.13;;;3.83;;
8622;SDS011;4349;47.552;8.904;2023-08-20T14:20:19;4.03;;;3.72;;
8622;SDS011;4349;47.552;8.904;2023-08-20T14:22:47;3.90;;;3.55;;
8622;SDS011;4349;47.552;8.904;2023-08-20T14:25:14;4.05;;;3.70;;
8622;SDS011;4349;47.552;8.904;2023-08-20T14:27:42;3.65;;;3.38;;
8622;SDS011;4349;47.552;8.904;2023-08-20T14:30:10;4.15;;;3.85;;
8622;SDS011;4349;47.552;8.904;2023-08-20T14:32:39;4.25;;;3.95;;
8622;SDS011;4349;47.552;8.904;2023-08-20T14:35:08;4.50;;;4.15;;
8622;SDS011;4349;47.552;8.904;2023-08-20T14:37:36;4.55;;;3.80;;
8622;SDS011;4349;47.552;8.904;2023-08-20T14:40:04;4.40;;;4.10;;
8622;SDS011;4349;47.552;8.904;2023-08-20T14:42:32;4.55;;;3.88;;
8622;SDS011;4349;47.552;8.904;2023-08-20T14:45:01;4.47;;;4.07;;
8622;SDS011;4349;47.552;8.904;2023-08-20T14:47:30;3.78;;;3.67;;
8622;SDS011;4349;47.552;8.904;2023-08-20T14:49:59;4.75;;;3.80;;
8622;SDS011;4349;47.552;8.904;2023-08-20T14:52:27;4.30;;;3.80;;
8622;SDS011;4349;47.552;8.904;2023-08-20T14:54:54;4.50;;;3.42;;
8622;SDS011;4349;47.552;8.904;2023-08-20T14:57:22;3.00;;;2.80;;
8622;SDS011;4349;47.552;8.904;2023-08-20T14:59:54;2.80;;;2.60;;
8622;SDS011;4349;47.552;8.904;2023-08-20T15:02:22;3.03;;;2.83;;
8622;SDS011;4349;47.552;8.904;2023-08-20T15:04:50;3.75;;;2.80;;
8622;SDS011;4349;47.552;8.904;2023-08-20T15:07:19;2.80;;;2.60;;
8622;SDS011;4349;47.552;8.904;2023-08-20T15:09:46;2.90;;;2.70;;
8622;SDS011;4349;47.552;8.904;2023-08-20T15:12:13;3.20;;;2.85;;
8622;SDS011;4349;47.552;8.904;2023-08-20T15:14:41;3.80;;;2.97;;
8622;SDS011;4349;47.552;8.904;2023-08-20T15:17:08;2.83;;;2.63;;
8622;SDS011;4349;47.552;8.904;2023-08-20T15:19:36;3.10;;;2.90;;
8622;SDS011;4349;47.552;8.904;2023-08-20T15:22:04;3.70;;;3.38;;
8622;SDS011;4349;47.552;8.904;2023-08-20T15:24:33;3.15;;;2.95;;